CheckWX is a tool to help pilots better visualize weather data.  It is not intended as a substitute for an official pre-flight weather briefing.

18:33:36 UTC

KTOA METAR
Zamperini Field Airport
Torrance, California, USA
Current

47 mins ago

KTOA 121747Z 27004KT 3SM BR FEW006 18/14 A3009
Observed
Nov-12 @ 17:47 UTC
Wind
  • 270° at 4 KTS
Visibility
3 SM
Flight Rules
MVFR
Conditions
Mist
Cloud Levels
  • Few at 600' AGL
Temperature
18°C / 64°F
Dewpoint
14°C / 57°F
Humidity
78%
Altimeter
30.09" Hg
Pressure
1018.92 hPa
Previous

2 hours ago

KTOA 121655Z VRB04KT 2 1/2SM BR FEW006 OVC008 17/14 A3009
Observed
Nov-12 @ 16:55 UTC
Wind
  • Variable at 4 KTS
Visibility
2 1/2 SM
Flight Rules
IFR
Conditions
Mist
Cloud Levels
  • Few at 600' AGL
  • Overcast at 800' AGL
Temperature
17°C / 63°F
Dewpoint
14°C / 57°F
Humidity
83%
Altimeter
30.09" Hg
Pressure
1018.92 hPa
Previous

3 hours ago

KTOA 121547Z VRB04KT 1 1/2SM BR FEW006 OVC008 16/14 A3008
Observed
Nov-12 @ 15:47 UTC
Wind
  • Variable at 4 KTS
Visibility
1 1/2 SM
Flight Rules
IFR
Conditions
Mist
Cloud Levels
  • Few at 600' AGL
  • Overcast at 800' AGL
Temperature
16°C / 61°F
Dewpoint
14°C / 57°F
Humidity
88%
Altimeter
30.08" Hg
Pressure
1018.62 hPa